createdAt,value
2023-04-29T00:01:15.074Z,6.00
2023-04-29T00:03:44.445Z,6.75
2023-04-29T00:06:12.719Z,8.50
2023-04-29T00:08:42.122Z,5.50
2023-04-29T00:11:11.488Z,6.25
2023-04-29T00:13:40.902Z,6.50
2023-04-29T00:16:10.206Z,5.75
2023-04-29T00:18:38.389Z,5.75
2023-04-29T00:21:07.098Z,5.00
2023-04-29T00:23:35.362Z,5.50
2023-04-29T00:26:04.692Z,5.75
2023-04-29T00:28:32.610Z,6.00
2023-04-29T00:31:00.668Z,5.50
2023-04-29T00:33:28.613Z,6.25
2023-04-29T00:35:56.530Z,4.75
2023-04-29T00:38:24.448Z,5.75
2023-04-29T00:40:52.556Z,5.75
2023-04-29T00:43:22.444Z,6.00
2023-04-29T00:45:51.095Z,4.75
2023-04-29T00:48:19.069Z,4.75
2023-04-29T00:50:47.206Z,6.00
2023-04-29T00:53:15.375Z,4.50
2023-04-29T00:55:43.316Z,5.75
2023-04-29T00:58:11.851Z,5.75
2023-04-29T01:00:41.572Z,5.75
2023-04-29T01:03:10.285Z,6.50
2023-04-29T01:05:38.408Z,5.75
2023-04-29T01:08:18.323Z,6.75
2023-04-29T01:10:50.088Z,6.00
2023-04-29T01:13:19.437Z,7.00
2023-04-29T01:15:51.168Z,6.75
2023-04-29T01:18:21.578Z,6.75
2023-04-29T01:20:49.492Z,9.50
2023-04-29T01:23:17.679Z,7.00
2023-04-29T01:25:48.979Z,7.50
2023-04-29T01:28:22.726Z,9.00
2023-04-29T01:30:52.060Z,8.00
2023-04-29T01:33:24.265Z,8.50
2023-04-29T01:36:01.916Z,8.00
2023-04-29T01:38:34.020Z,9.00
2023-04-29T01:41:09.057Z,7.75
2023-04-29T01:43:37.427Z,9.50
2023-04-29T01:46:06.216Z,10.50
2023-04-29T01:48:34.191Z,9.25
2023-04-29T01:51:02.766Z,10.00
2023-04-29T01:53:30.970Z,11.25
2023-04-29T01:55:58.874Z,11.25
2023-04-29T01:58:28.226Z,11.00
2023-04-29T02:00:56.274Z,11.25
2023-04-29T02:03:24.765Z,10.00
2023-04-29T02:05:52.962Z,10.00
2023-04-29T02:08:20.860Z,11.00
2023-04-29T02:10:55.192Z,10.25
2023-04-29T02:13:23.386Z,11.75
2023-04-29T02:15:52.713Z,10.00
2023-04-29T02:18:20.661Z,11.00
2023-04-29T02:20:50.656Z,11.00
2023-04-29T02:23:18.939Z,10.00
2023-04-29T02:25:46.867Z,10.50
2023-04-29T02:28:14.753Z,11.00
2023-04-29T02:30:42.617Z,10.00
2023-04-29T02:33:12.042Z,11.00
2023-04-29T02:35:40.018Z,11.00
2023-04-29T02:38:07.907Z,12.00
2023-04-29T02:40:35.846Z,10.00
2023-04-29T02:43:04.647Z,10.25
2023-04-29T02:45:32.611Z,12.00
2023-04-29T02:48:00.661Z,12.25
2023-04-29T02:50:30.326Z,10.75
2023-04-29T02:52:58.775Z,12.00
2023-04-29T02:55:26.973Z,10.25
2023-04-29T02:57:54.897Z,10.75
2023-04-29T03:00:23.659Z,12.00
2023-04-29T03:02:51.987Z,11.00
2023-04-29T03:05:20.279Z,12.25
2023-04-29T03:07:49.628Z,11.00
2023-04-29T03:10:18.217Z,12.00
2023-04-29T03:12:46.438Z,11.00
2023-04-29T03:15:14.368Z,10.00
2023-04-29T03:17:42.319Z,10.75
2023-04-29T03:20:11.716Z,10.00
2023-04-29T03:22:39.947Z,12.50
2023-04-29T03:25:10.713Z,10.50
2023-04-29T03:27:39.044Z,11.00
2023-04-29T03:30:10.413Z,12.00
2023-04-29T03:32:38.379Z,10.00
2023-04-29T03:35:07.239Z,10.00
2023-04-29T03:37:35.268Z,9.00
2023-04-29T03:40:03.255Z,10.75
2023-04-29T03:42:32.935Z,11.00
2023-04-29T03:45:00.823Z,11.75
2023-04-29T03:47:28.826Z,11.25
2023-04-29T03:49:56.719Z,12.50
2023-04-29T03:52:24.672Z,11.00
2023-04-29T03:54:52.541Z,12.75
2023-04-29T03:57:20.460Z,9.75
2023-04-29T03:59:50.635Z,10.50
2023-04-29T04:02:19.651Z,10.00
2023-04-29T04:04:47.911Z,9.50
2023-04-29T04:07:15.964Z,10.00
2023-04-29T04:09:43.874Z,10.00
2023-04-29T04:12:11.792Z,8.75
2023-04-29T04:14:39.677Z,9.00
2023-04-29T04:17:08.991Z,11.25
2023-04-29T04:19:36.949Z,10.00
2023-04-29T04:22:04.950Z,11.50
2023-04-29T04:24:33.134Z,9.75
2023-04-29T04:27:01.100Z,9.00
2023-04-29T04:29:29.054Z,10.75
2023-04-29T04:31:58.319Z,9.00
2023-04-29T04:34:27.648Z,8.00
2023-04-29T04:36:55.701Z,10.00
2023-04-29T04:39:23.624Z,8.50
2023-04-29T04:41:51.586Z,9.75
2023-04-29T04:44:19.818Z,11.25
2023-04-29T04:46:47.910Z,9.50
2023-04-29T04:49:15.911Z,10.50
2023-04-29T04:51:46.604Z,10.50
2023-04-29T04:54:14.783Z,8.75
2023-04-29T04:56:42.632Z,10.50
2023-04-29T04:59:10.557Z,10.00
2023-04-29T05:01:38.597Z,8.00
2023-04-29T05:04:07.213Z,10.00
2023-04-29T05:06:35.317Z,10.00
2023-04-29T05:09:04.944Z,10.00
2023-04-29T05:11:32.853Z,9.00
2023-04-29T05:14:01.142Z,9.00
2023-04-29T05:16:29.133Z,7.50
2023-04-29T05:18:57.076Z,9.50
2023-04-29T05:21:25.035Z,8.25
2023-04-29T05:23:53.204Z,7.25
2023-04-29T05:26:22.470Z,8.50
2023-04-29T05:28:50.350Z,8.00
2023-04-29T05:31:18.326Z,7.50
2023-04-29T05:33:46.270Z,7.25
2023-04-29T05:36:14.222Z,7.00
2023-04-29T05:38:42.698Z,8.00
2023-04-29T05:41:10.702Z,7.00
2023-04-29T05:43:40.254Z,8.00
2023-04-29T05:46:08.207Z,7.25
2023-04-29T05:48:36.262Z,7.75
2023-04-29T05:51:04.137Z,7.00
2023-04-29T05:53:33.323Z,7.00
2023-04-29T05:56:04.827Z,7.00
2023-04-29T05:58:32.746Z,6.75
2023-04-29T06:01:02.053Z,6.50
2023-04-29T06:03:31.309Z,6.75
2023-04-29T06:05:59.714Z,7.00
2023-04-29T06:08:28.066Z,7.75
2023-04-29T06:10:56.503Z,7.00
2023-04-29T06:13:25.128Z,7.00
2023-04-29T06:15:53.593Z,6.75
2023-04-29T06:18:23.566Z,6.00
2023-04-29T06:20:51.998Z,7.25
2023-04-29T06:23:20.523Z,6.00
2023-04-29T06:25:50.208Z,6.00
2023-04-29T06:28:21.038Z,6.50
2023-04-29T06:30:50.289Z,6.00
2023-04-29T06:33:18.719Z,6.50
2023-04-29T06:35:48.374Z,8.00
2023-04-29T06:38:16.695Z,6.50
2023-04-29T06:40:44.830Z,7.00
2023-04-29T06:43:14.430Z,6.75
2023-04-29T06:45:42.677Z,7.00
2023-04-29T06:48:10.921Z,8.00
2023-04-29T06:50:39.428Z,6.00
2023-04-29T06:53:15.608Z,6.00
2023-04-29T06:55:43.741Z,8.25
2023-04-29T06:58:12.106Z,8.00
2023-04-29T07:00:40.347Z,6.75
2023-04-29T07:03:10.012Z,7.00
2023-04-29T07:05:39.343Z,7.00
2023-04-29T07:08:07.300Z,8.00
2023-04-29T07:10:36.656Z,7.25
2023-04-29T07:13:05.063Z,7.00
2023-04-29T07:15:35.471Z,7.00
2023-04-29T07:18:05.061Z,8.50
2023-04-29T07:20:32.989Z,6.75
2023-04-29T07:23:01.220Z,7.75
2023-04-29T07:25:29.901Z,6.25
2023-04-29T07:27:59.333Z,6.00
2023-04-29T07:30:27.376Z,6.50
2023-04-29T07:32:55.369Z,6.00
2023-04-29T07:35:23.292Z,7.00
2023-04-29T07:37:51.381Z,6.00
2023-04-29T07:40:19.299Z,6.25
2023-04-29T07:42:47.472Z,7.00
2023-04-29T07:45:16.859Z,6.75
2023-04-29T07:47:45.927Z,5.50
2023-04-29T07:50:14.203Z,6.25
2023-04-29T07:52:42.977Z,7.00
2023-04-29T07:55:10.947Z,5.75
2023-04-29T07:57:38.873Z,7.00
2023-04-29T08:00:10.872Z,5.00
2023-04-29T08:02:40.586Z,5.25
2023-04-29T08:05:09.415Z,5.00
2023-04-29T08:07:37.624Z,6.75
2023-04-29T08:10:06.313Z,5.50
2023-04-29T08:12:34.303Z,7.75
2023-04-29T08:15:02.213Z,6.00
2023-04-29T08:17:30.157Z,5.75
2023-04-29T08:19:59.501Z,5.00
2023-04-29T08:22:27.651Z,6.75
2023-04-29T08:24:55.960Z,6.50
2023-04-29T08:27:24.196Z,5.50
2023-04-29T08:29:52.211Z,7.00
2023-04-29T08:32:20.608Z,5.50
2023-04-29T08:34:48.498Z,8.00
2023-04-29T08:37:18.672Z,6.00
2023-04-29T08:39:48.027Z,6.00
2023-04-29T08:42:15.994Z,6.50
2023-04-29T08:44:44.220Z,5.50
2023-04-29T08:47:12.126Z,5.75
2023-04-29T08:49:40.058Z,6.00
2023-04-29T08:52:08.011Z,6.75
2023-04-29T08:54:37.590Z,5.75
2023-04-29T08:57:05.532Z,6.00
2023-04-29T08:59:33.469Z,6.00
2023-04-29T09:02:01.541Z,6.25
2023-04-29T09:04:33.616Z,5.50
2023-04-29T09:07:01.532Z,5.50
2023-04-29T09:09:29.997Z,6.00
2023-04-29T09:11:59.337Z,5.75
2023-04-29T09:14:27.556Z,5.25
2023-04-29T09:16:55.548Z,6.00
2023-04-29T09:19:30.960Z,6.75
2023-04-29T09:21:58.929Z,7.00
2023-04-29T09:24:27.609Z,5.50
2023-04-29T09:26:55.698Z,5.50
2023-04-29T09:29:25.025Z,6.50
2023-04-29T09:31:53.577Z,7.00
2023-04-29T09:34:32.237Z,6.50
2023-04-29T09:37:00.154Z,7.00
2023-04-29T09:39:28.032Z,6.75
2023-04-29T09:42:00.335Z,9.00
2023-04-29T09:44:33.672Z,8.50
2023-04-29T09:47:03.927Z,7.00
2023-04-29T09:49:32.864Z,8.25
2023-04-29T09:52:02.028Z,9.50
2023-04-29T09:54:31.191Z,9.75
2023-04-29T09:56:59.666Z,8.50
2023-04-29T09:59:28.996Z,7.75
2023-04-29T10:01:58.625Z,10.00
2023-04-29T10:04:28.021Z,10.50
2023-04-29T10:06:56.810Z,12.75
2023-04-29T10:09:25.049Z,13.00
2023-04-29T10:11:53.556Z,11.75
2023-04-29T10:14:22.705Z,12.50
2023-04-29T10:16:54.640Z,12.00
2023-04-29T10:19:28.333Z,15.50
2023-04-29T10:21:56.630Z,12.75
2023-04-29T10:24:24.639Z,13.00
2023-04-29T10:26:53.246Z,12.25
2023-04-29T10:29:21.152Z,14.50
2023-04-29T10:31:49.161Z,15.00
2023-04-29T10:34:19.675Z,16.50
2023-04-29T10:36:48.100Z,16.00
2023-04-29T10:39:22.936Z,14.00
2023-04-29T10:41:51.206Z,15.75
2023-04-29T10:44:20.410Z,15.00
2023-04-29T10:46:48.765Z,15.75
2023-04-29T10:49:16.790Z,17.25
2023-04-29T10:51:46.378Z,15.50
2023-04-29T10:54:17.282Z,16.75
2023-04-29T10:56:46.578Z,18.50
2023-04-29T10:59:15.097Z,16.75
2023-04-29T11:01:47.586Z,18.75
2023-04-29T11:04:15.861Z,17.25
2023-04-29T11:06:46.457Z,17.00
2023-04-29T11:09:16.142Z,18.25
2023-04-29T11:11:59.273Z,17.75
2023-04-29T11:14:27.939Z,17.75
2023-04-29T11:16:57.650Z,17.75
2023-04-29T11:19:26.890Z,18.75
2023-04-29T11:22:17.821Z,16.00
2023-04-29T11:24:53.457Z,18.75
2023-04-29T11:27:25.380Z,20.25
2023-04-29T11:29:55.831Z,18.00
2023-04-29T11:32:25.294Z,19.00
2023-04-29T11:34:53.665Z,19.50
2023-04-29T11:37:24.100Z,19.75
2023-04-29T11:39:52.294Z,19.50
2023-04-29T11:42:23.342Z,17.25
2023-04-29T11:44:55.004Z,17.00
2023-04-29T11:47:23.141Z,17.50
2023-04-29T11:49:51.048Z,18.50
2023-04-29T11:52:18.948Z,19.00
2023-04-29T11:54:48.235Z,16.00
2023-04-29T11:57:16.145Z,18.50
2023-04-29T11:59:44.152Z,18.50
2023-04-29T12:02:13.563Z,18.00
2023-04-29T12:04:51.187Z,16.25
2023-04-29T12:07:19.451Z,17.75
2023-04-29T12:09:48.877Z,18.25
2023-04-29T12:12:17.021Z,15.50
2023-04-29T12:14:45.277Z,16.50
2023-04-29T12:17:13.187Z,17.00
2023-04-29T12:19:41.993Z,16.00
2023-04-29T12:22:09.959Z,18.75
2023-04-29T12:24:38.560Z,15.50
2023-04-29T12:27:09.659Z,15.25
2023-04-29T12:29:37.598Z,15.50
2023-04-29T12:32:05.627Z,16.75
2023-04-29T12:34:33.910Z,15.75
2023-04-29T12:37:02.079Z,16.25
2023-04-29T12:39:30.238Z,14.75
2023-04-29T12:41:59.349Z,16.00
2023-04-29T12:44:36.566Z,17.25
2023-04-29T12:47:09.670Z,14.50
2023-04-29T12:49:38.300Z,16.75
2023-04-29T12:52:09.560Z,16.50
2023-04-29T12:54:37.960Z,16.25
2023-04-29T12:57:05.978Z,14.25
2023-04-29T12:59:35.926Z,16.25
2023-04-29T13:02:03.903Z,18.00
2023-04-29T13:04:32.541Z,16.50
2023-04-29T13:07:01.414Z,14.50
2023-04-29T13:09:29.306Z,15.25
2023-04-29T13:11:57.778Z,15.00
2023-04-29T13:14:26.133Z,14.50
2023-04-29T13:16:55.450Z,16.25
2023-04-29T13:21:54.320Z,17.00
2023-04-29T13:24:22.663Z,14.50
2023-04-29T13:26:52.633Z,16.25
2023-04-29T13:29:20.948Z,13.50
2023-04-29T13:31:48.925Z,14.25
2023-04-29T13:34:18.772Z,13.25
2023-04-29T13:36:46.868Z,14.00
2023-04-29T13:39:15.109Z,14.75
2023-04-29T13:41:45.965Z,15.50
2023-04-29T13:44:27.090Z,14.00
2023-04-29T13:46:58.861Z,12.50
2023-04-29T13:49:58.551Z,14.75
2023-04-29T13:55:12.188Z,14.75
2023-04-29T13:58:08.160Z,13.25
2023-04-29T14:05:27.056Z,13.75
2023-04-29T14:07:55.117Z,14.75
2023-04-29T14:10:23.237Z,13.75
2023-04-29T14:12:51.625Z,15.25
2023-04-29T14:15:19.533Z,16.00
2023-04-29T14:17:47.496Z,13.25
2023-04-29T14:20:15.454Z,14.50
2023-04-29T14:22:45.331Z,17.00
2023-04-29T14:25:13.754Z,14.00
2023-04-29T14:27:42.103Z,13.25
2023-04-29T14:30:11.642Z,14.25
2023-04-29T14:32:39.671Z,12.75
2023-04-29T14:35:09.672Z,14.00
2023-04-29T14:37:37.664Z,15.00
2023-04-29T14:40:09.370Z,14.75
2023-04-29T14:42:37.324Z,12.25
2023-04-29T14:45:09.265Z,13.75
2023-04-29T14:47:37.255Z,13.50
2023-04-29T14:50:05.742Z,15.25
2023-04-29T14:52:34.127Z,14.00
2023-04-29T14:55:02.068Z,14.00
2023-04-29T14:57:31.457Z,13.75
2023-04-29T14:59:59.398Z,13.75
2023-04-29T15:02:27.688Z,13.00
2023-04-29T15:04:55.989Z,14.00
2023-04-29T15:07:24.212Z,14.00
2023-04-29T15:09:54.661Z,14.00
2023-04-29T15:12:24.533Z,13.25
2023-04-29T15:14:54.100Z,12.75
2023-04-29T15:17:22.268Z,13.00
2023-04-29T15:19:50.239Z,13.75
2023-04-29T15:22:19.453Z,15.00
2023-04-29T15:27:16.778Z,13.25
2023-04-29T15:29:45.744Z,14.25
2023-04-29T15:32:15.626Z,13.75
2023-04-29T15:34:43.620Z,15.25
2023-04-29T15:37:12.679Z,15.00
2023-04-29T15:39:40.629Z,14.75
2023-04-29T15:42:09.488Z,15.00
2023-04-29T15:44:38.023Z,15.50
2023-04-29T15:47:05.978Z,14.00
2023-04-29T15:49:35.327Z,13.75
2023-04-29T15:52:03.562Z,14.00
2023-04-29T15:54:31.822Z,13.25
2023-04-29T15:56:59.755Z,14.00
2023-04-29T15:59:27.797Z,12.75
2023-04-29T16:01:55.688Z,12.50
2023-04-29T16:04:23.992Z,14.00
2023-04-29T16:06:53.562Z,15.25
2023-04-29T16:09:21.718Z,13.75
2023-04-29T16:11:49.650Z,13.75
2023-04-29T16:14:17.911Z,13.75
2023-04-29T16:16:45.942Z,12.75
2023-04-29T16:19:14.945Z,12.75
2023-04-29T16:21:45.496Z,13.25
2023-04-29T16:24:14.818Z,15.00
2023-04-29T16:26:42.740Z,14.00
2023-04-29T16:29:12.446Z,13.25
2023-04-29T16:31:40.547Z,11.75
2023-04-29T16:34:08.681Z,13.25
2023-04-29T16:36:36.631Z,14.75
2023-04-29T16:39:05.195Z,12.75
2023-04-29T16:41:34.530Z,13.25
2023-04-29T16:44:02.968Z,13.50
2023-04-29T16:46:32.430Z,13.25
2023-04-29T16:49:00.655Z,12.75
2023-04-29T16:51:29.248Z,14.50
2023-04-29T16:53:57.765Z,12.75
2023-04-29T16:56:25.790Z,12.75
2023-04-29T16:58:55.173Z,14.00
2023-04-29T17:01:23.096Z,12.50
2023-04-29T17:03:51.578Z,13.50
2023-04-29T17:06:19.769Z,12.75
2023-04-29T17:08:50.092Z,13.00
2023-04-29T17:11:19.390Z,12.75
2023-04-29T17:13:47.650Z,12.00
2023-04-29T17:16:17.067Z,13.00
2023-04-29T17:18:45.027Z,13.25
2023-04-29T17:21:12.935Z,12.75
2023-04-29T17:23:41.108Z,12.75
2023-04-29T17:26:09.253Z,13.50
2023-04-29T17:28:37.145Z,11.50
2023-04-29T17:31:06.309Z,13.75
2023-04-29T17:33:36.012Z,12.00
2023-04-29T17:36:04.082Z,14.00
2023-04-29T17:38:33.108Z,12.50
2023-04-29T17:41:01.157Z,13.00
2023-04-29T17:43:33.203Z,12.75
2023-04-29T17:46:01.270Z,14.00
2023-04-29T17:48:29.265Z,12.00
2023-04-29T17:50:58.988Z,11.25
2023-04-29T17:53:28.628Z,12.50
2023-04-29T17:55:56.812Z,13.00
2023-04-29T17:58:25.130Z,14.50
2023-04-29T18:00:53.347Z,11.75
2023-04-29T18:03:23.661Z,11.75
2023-04-29T18:05:51.699Z,12.25
2023-04-29T18:08:21.291Z,12.25
2023-04-29T18:10:49.194Z,13.00
2023-04-29T18:13:17.537Z,10.75
2023-04-29T18:15:45.459Z,10.75
2023-04-29T18:18:13.421Z,12.25
2023-04-29T18:20:43.785Z,11.75
2023-04-29T18:23:12.285Z,12.50
2023-04-29T18:25:43.334Z,12.75
2023-04-29T18:28:23.541Z,10.75
2023-04-29T18:30:53.041Z,10.75
2023-04-29T18:33:21.480Z,11.00
2023-04-29T18:35:49.492Z,12.00
2023-04-29T18:38:17.537Z,10.25
2023-04-29T18:40:46.974Z,10.75
2023-04-29T18:43:18.065Z,10.00
2023-04-29T18:45:46.160Z,10.50
2023-04-29T18:48:15.046Z,10.50
2023-04-29T18:50:43.114Z,12.25
2023-04-29T18:53:11.028Z,11.75
2023-04-29T18:55:39.051Z,11.75
2023-04-29T18:58:09.276Z,12.75
2023-04-29T19:00:37.159Z,12.25
2023-04-29T19:03:06.206Z,12.25
2023-04-29T19:05:34.661Z,11.75
2023-04-29T19:08:02.565Z,10.75
2023-04-29T19:10:30.596Z,12.75
2023-04-29T19:12:58.848Z,11.50
2023-04-29T19:15:28.435Z,11.25
2023-04-29T19:17:56.614Z,12.75
2023-04-29T19:20:24.588Z,10.75
2023-04-29T19:22:54.993Z,11.00
2023-04-29T19:25:26.250Z,10.75
2023-04-29T19:27:57.553Z,11.00
2023-04-29T19:33:52.352Z,11.75
2023-04-29T19:36:20.374Z,11.00
2023-04-29T19:38:49.217Z,12.00
2023-04-29T19:41:17.228Z,10.25
2023-04-29T19:43:47.016Z,9.25
2023-04-29T19:46:16.372Z,11.75
2023-04-29T19:48:44.299Z,12.25
2023-04-29T19:51:12.272Z,12.50
2023-04-29T19:53:40.935Z,11.50
2023-04-29T19:56:09.314Z,10.50
2023-04-29T19:58:37.333Z,12.25
2023-04-29T20:01:06.012Z,13.75
2023-04-29T20:03:39.261Z,12.00
2023-04-29T20:06:07.759Z,11.50
2023-04-29T20:08:35.703Z,13.50
2023-04-29T20:11:04.661Z,13.50
2023-04-29T20:13:32.600Z,12.25
2023-04-29T20:16:00.592Z,13.75
2023-04-29T20:18:28.600Z,14.25
2023-04-29T20:20:57.900Z,15.00
2023-04-29T20:23:26.258Z,15.50
2023-04-29T20:25:54.256Z,14.75
2023-04-29T20:28:22.258Z,15.50
2023-04-29T20:30:53.160Z,16.50
2023-04-29T20:33:23.073Z,17.00
2023-04-29T20:35:51.841Z,19.25
2023-04-29T20:38:22.544Z,17.25
2023-04-29T20:40:53.810Z,19.50
2023-04-29T20:43:21.948Z,16.25
2023-04-29T20:45:50.795Z,17.25
2023-04-29T20:48:18.964Z,18.50
2023-04-29T20:50:48.270Z,20.50
2023-04-29T20:53:16.774Z,20.00
2023-04-29T20:55:46.637Z,19.50
2023-04-29T20:58:16.349Z,20.50
2023-04-29T21:00:44.405Z,19.50
2023-04-29T21:03:15.937Z,20.00
2023-04-29T21:05:43.944Z,18.00
2023-04-29T21:08:12.032Z,17.00
2023-04-29T21:10:40.072Z,19.00
2023-04-29T21:13:09.646Z,19.00
2023-04-29T21:15:37.635Z,18.00
2023-04-29T21:18:05.949Z,17.75
2023-04-29T21:20:33.880Z,17.50
2023-04-29T21:23:02.367Z,19.75
2023-04-29T21:25:30.312Z,21.00
2023-04-29T21:27:58.245Z,18.00
2023-04-29T21:30:27.558Z,24.00
2023-04-29T21:32:55.595Z,20.00
2023-04-29T21:35:23.696Z,18.75
2023-04-29T21:37:51.730Z,21.00
2023-04-29T21:40:19.914Z,20.00
2023-04-29T21:42:47.838Z,22.25
2023-04-29T21:45:16.126Z,22.25
2023-04-29T21:47:45.512Z,20.25
2023-04-29T21:50:13.573Z,21.50
2023-04-29T21:52:41.746Z,20.25
2023-04-29T21:55:10.493Z,23.00
2023-04-29T21:57:44.403Z,22.75
2023-04-29T22:00:33.084Z,24.75
2023-04-29T22:03:03.734Z,24.75
2023-04-29T22:05:31.670Z,26.00
2023-04-29T22:08:00.378Z,21.75
2023-04-29T22:10:28.351Z,24.75
2023-04-29T22:12:57.528Z,23.50
2023-04-29T22:15:28.564Z,25.50
2023-04-29T22:17:58.056Z,24.50
2023-04-29T22:20:27.456Z,25.00
2023-04-29T22:22:56.033Z,27.25
2023-04-29T22:25:24.026Z,24.75
2023-04-29T22:27:51.959Z,26.75
2023-04-29T22:30:20.782Z,24.25
2023-04-29T22:32:48.991Z,22.00
2023-04-29T22:35:17.121Z,24.00
2023-04-29T22:37:46.459Z,23.50
2023-04-29T22:40:15.063Z,24.00
2023-04-29T22:42:43.086Z,22.00
2023-04-29T22:45:12.360Z,22.25
2023-04-29T22:47:40.399Z,23.00
2023-04-29T22:50:09.318Z,21.25
2023-04-29T22:52:37.532Z,22.50
2023-04-29T22:55:07.882Z,21.00
2023-04-29T22:57:35.787Z,22.25
2023-04-29T23:00:03.911Z,19.00
2023-04-29T23:02:31.827Z,19.00
2023-04-29T23:04:59.866Z,21.75
2023-04-29T23:07:27.913Z,21.75
2023-04-29T23:09:56.057Z,21.00
2023-04-29T23:12:25.521Z,20.00
2023-04-29T23:14:53.587Z,21.50
2023-04-29T23:17:21.488Z,19.00
2023-04-29T23:19:49.401Z,19.50
2023-04-29T23:22:17.743Z,19.25
2023-04-29T23:24:45.849Z,19.25
2023-04-29T23:27:13.797Z,18.75
2023-04-29T23:29:43.036Z,19.25
2023-04-29T23:32:11.186Z,18.75
2023-04-29T23:34:39.277Z,18.25
2023-04-29T23:37:07.151Z,18.25
2023-04-29T23:39:35.123Z,18.25
2023-04-29T23:42:03.718Z,16.50
2023-04-29T23:44:31.883Z,16.50
2023-04-29T23:47:01.146Z,16.00
2023-04-29T23:49:29.069Z,15.50
2023-04-29T23:51:56.966Z,14.25
2023-04-29T23:54:27.835Z,17.00
2023-04-29T23:56:58.591Z,16.50
2023-04-29T23:59:30.480Z,15.00
